sensor_id;sensor_type;location;lat;lon;timestamp;P1;durP1;ratioP1;P2;durP2;ratioP2
13933;SDS011;7039;52.168;9.866;2023-07-09T00:00:10;9.67;;;7.07;;
13933;SDS011;7039;52.168;9.866;2023-07-09T00:02:41;10.97;;;7.13;;
13933;SDS011;7039;52.168;9.866;2023-07-09T00:05:09;8.43;;;7.33;;
13933;SDS011;7039;52.168;9.866;2023-07-09T00:07:39;9.53;;;6.97;;
13933;SDS011;7039;52.168;9.866;2023-07-09T00:10:12;8.47;;;7.30;;
13933;SDS011;7039;52.168;9.866;2023-07-09T00:12:42;9.33;;;7.37;;
13933;SDS011;7039;52.168;9.866;2023-07-09T00:15:10;11.97;;;7.80;;
13933;SDS011;7039;52.168;9.866;2023-07-09T00:17:37;11.53;;;7.50;;
13933;SDS011;7039;52.168;9.866;2023-07-09T00:20:06;8.33;;;7.03;;
13933;SDS011;7039;52.168;9.866;2023-07-09T00:22:38;8.10;;;7.30;;
13933;SDS011;7039;52.168;9.866;2023-07-09T00:25:05;8.63;;;7.13;;
13933;SDS011;7039;52.168;9.866;2023-07-09T00:27:33;10.30;;;7.20;;
13933;SDS011;7039;52.168;9.866;2023-07-09T00:30:01;9.90;;;7.70;;
13933;SDS011;7039;52.168;9.866;2023-07-09T00:32:29;8.60;;;6.77;;
13933;SDS011;7039;52.168;9.866;2023-07-09T00:34:55;10.23;;;6.80;;
13933;SDS011;7039;52.168;9.866;2023-07-09T00:37:23;12.23;;;7.40;;
13933;SDS011;7039;52.168;9.866;2023-07-09T00:39:51;7.87;;;6.87;;
13933;SDS011;7039;52.168;9.866;2023-07-09T00:42:18;9.93;;;7.10;;
13933;SDS011;7039;52.168;9.866;2023-07-09T00:44:50;9.73;;;6.70;;
13933;SDS011;7039;52.168;9.866;2023-07-09T00:47:23;7.77;;;6.93;;
13933;SDS011;7039;52.168;9.866;2023-07-09T00:49:56;10.50;;;7.30;;
13933;SDS011;7039;52.168;9.866;2023-07-09T00:52:31;10.57;;;7.30;;
13933;SDS011;7039;52.168;9.866;2023-07-09T00:55:00;10.47;;;7.43;;
13933;SDS011;7039;52.168;9.866;2023-07-09T00:57:32;9.87;;;7.70;;
13933;SDS011;7039;52.168;9.866;2023-07-09T01:00:04;8.53;;;7.63;;
13933;SDS011;7039;52.168;9.866;2023-07-09T01:02:35;9.60;;;7.57;;
13933;SDS011;7039;52.168;9.866;2023-07-09T01:05:02;9.33;;;8.17;;
13933;SDS011;7039;52.168;9.866;2023-07-09T01:07:31;9.90;;;7.53;;
13933;SDS011;7039;52.168;9.866;2023-07-09T01:09:58;8.97;;;7.70;;
13933;SDS011;7039;52.168;9.866;2023-07-09T01:12:24;12.07;;;7.80;;
13933;SDS011;7039;52.168;9.866;2023-07-09T01:14:52;10.10;;;8.13;;
13933;SDS011;7039;52.168;9.866;2023-07-09T01:17:24;9.13;;;7.53;;
13933;SDS011;7039;52.168;9.866;2023-07-09T01:19:54;12.20;;;7.90;;
13933;SDS011;7039;52.168;9.866;2023-07-09T01:22:23;12.33;;;7.40;;
13933;SDS011;7039;52.168;9.866;2023-07-09T01:24:52;8.40;;;7.20;;
13933;SDS011;7039;52.168;9.866;2023-07-09T01:27:21;8.80;;;7.53;;
13933;SDS011;7039;52.168;9.866;2023-07-09T01:29:51;8.80;;;7.57;;
13933;SDS011;7039;52.168;9.866;2023-07-09T01:32:19;13.60;;;8.37;;
13933;SDS011;7039;52.168;9.866;2023-07-09T01:34:47;11.97;;;8.27;;
13933;SDS011;7039;52.168;9.866;2023-07-09T01:37:15;11.73;;;7.53;;
13933;SDS011;7039;52.168;9.866;2023-07-09T01:39:44;11.23;;;8.37;;
13933;SDS011;7039;52.168;9.866;2023-07-09T01:42:10;12.80;;;8.43;;
13933;SDS011;7039;52.168;9.866;2023-07-09T01:44:38;11.90;;;7.80;;
13933;SDS011;7039;52.168;9.866;2023-07-09T01:47:05;11.07;;;7.90;;
13933;SDS011;7039;52.168;9.866;2023-07-09T01:49:32;9.87;;;7.20;;
13933;SDS011;7039;52.168;9.866;2023-07-09T01:51:59;10.20;;;7.83;;
13933;SDS011;7039;52.168;9.866;2023-07-09T01:54:27;12.33;;;8.23;;
13933;SDS011;7039;52.168;9.866;2023-07-09T01:59:40;14.00;;;8.27;;
13933;SDS011;7039;52.168;9.866;2023-07-09T02:02:07;12.73;;;7.73;;
13933;SDS011;7039;52.168;9.866;2023-07-09T02:04:33;11.60;;;7.53;;
13933;SDS011;7039;52.168;9.866;2023-07-09T02:07:00;11.60;;;8.70;;
13933;SDS011;7039;52.168;9.866;2023-07-09T02:09:26;16.60;;;7.93;;
13933;SDS011;7039;52.168;9.866;2023-07-09T02:11:53;13.93;;;7.57;;
13933;SDS011;7039;52.168;9.866;2023-07-09T02:14:20;12.80;;;7.40;;
13933;SDS011;7039;52.168;9.866;2023-07-09T02:16:47;12.60;;;8.70;;
13933;SDS011;7039;52.168;9.866;2023-07-09T02:19:13;10.73;;;8.40;;
13933;SDS011;7039;52.168;9.866;2023-07-09T02:21:40;12.63;;;7.80;;
13933;SDS011;7039;52.168;9.866;2023-07-09T02:24:06;11.03;;;8.60;;
13933;SDS011;7039;52.168;9.866;2023-07-09T02:26:33;12.77;;;8.80;;
13933;SDS011;7039;52.168;9.866;2023-07-09T02:28:59;12.40;;;7.97;;
13933;SDS011;7039;52.168;9.866;2023-07-09T02:31:27;10.17;;;8.47;;
13933;SDS011;7039;52.168;9.866;2023-07-09T02:33:55;9.67;;;8.20;;
13933;SDS011;7039;52.168;9.866;2023-07-09T02:36:21;9.27;;;7.90;;
13933;SDS011;7039;52.168;9.866;2023-07-09T02:38:48;12.33;;;9.40;;
13933;SDS011;7039;52.168;9.866;2023-07-09T02:41:14;11.23;;;8.37;;
13933;SDS011;7039;52.168;9.866;2023-07-09T02:43:41;10.13;;;7.63;;
13933;SDS011;7039;52.168;9.866;2023-07-09T02:46:07;10.20;;;8.00;;
13933;SDS011;7039;52.168;9.866;2023-07-09T02:48:35;12.10;;;7.73;;
13933;SDS011;7039;52.168;9.866;2023-07-09T02:51:02;16.10;;;9.97;;
13933;SDS011;7039;52.168;9.866;2023-07-09T02:53:28;16.53;;;10.70;;
13933;SDS011;7039;52.168;9.866;2023-07-09T02:55:54;12.10;;;9.70;;
13933;SDS011;7039;52.168;9.866;2023-07-09T02:58:21;11.80;;;8.70;;
13933;SDS011;7039;52.168;9.866;2023-07-09T03:00:48;17.20;;;9.10;;
13933;SDS011;7039;52.168;9.866;2023-07-09T03:03:16;11.27;;;7.90;;
13933;SDS011;7039;52.168;9.866;2023-07-09T03:05:45;10.90;;;8.30;;
13933;SDS011;7039;52.168;9.866;2023-07-09T03:08:12;10.63;;;8.07;;
13933;SDS011;7039;52.168;9.866;2023-07-09T03:10:39;10.17;;;7.33;;
13933;SDS011;7039;52.168;9.866;2023-07-09T03:13:06;12.47;;;7.17;;
13933;SDS011;7039;52.168;9.866;2023-07-09T03:28:57;9.27;;;6.20;;
13933;SDS011;7039;52.168;9.866;2023-07-09T03:31:24;9.90;;;6.73;;
13933;SDS011;7039;52.168;9.866;2023-07-09T03:45:19;7.80;;;5.90;;
13933;SDS011;7039;52.168;9.866;2023-07-09T03:47:45;8.17;;;6.60;;
13933;SDS011;7039;52.168;9.866;2023-07-09T04:09:58;8.37;;;6.07;;
13933;SDS011;7039;52.168;9.866;2023-07-09T04:12:24;6.87;;;6.13;;
13933;SDS011;7039;52.168;9.866;2023-07-09T04:50:59;7.97;;;6.33;;
13933;SDS011;7039;52.168;9.866;2023-07-09T04:53:26;10.30;;;6.10;;
13933;SDS011;7039;52.168;9.866;2023-07-09T04:55:53;9.30;;;7.20;;
13933;SDS011;7039;52.168;9.866;2023-07-09T04:58:20;7.80;;;6.10;;
13933;SDS011;7039;52.168;9.866;2023-07-09T05:00:47;14.10;;;6.73;;
13933;SDS011;7039;52.168;9.866;2023-07-09T05:03:14;8.50;;;6.40;;
13933;SDS011;7039;52.168;9.866;2023-07-09T05:05:42;13.83;;;6.87;;
13933;SDS011;7039;52.168;9.866;2023-07-09T05:08:10;9.30;;;7.13;;
13933;SDS011;7039;52.168;9.866;2023-07-09T05:10:40;9.47;;;7.33;;
13933;SDS011;7039;52.168;9.866;2023-07-09T05:13:07;9.33;;;7.03;;
13933;SDS011;7039;52.168;9.866;2023-07-09T05:21:59;8.83;;;6.97;;
13933;SDS011;7039;52.168;9.866;2023-07-09T05:25:24;9.70;;;7.80;;
13933;SDS011;7039;52.168;9.866;2023-07-09T05:27:50;8.53;;;7.07;;
13933;SDS011;7039;52.168;9.866;2023-07-09T05:30:17;9.27;;;7.33;;
13933;SDS011;7039;52.168;9.866;2023-07-09T05:32:43;9.40;;;7.43;;
13933;SDS011;7039;52.168;9.866;2023-07-09T05:35:27;9.40;;;7.63;;
13933;SDS011;7039;52.168;9.866;2023-07-09T05:37:54;12.50;;;7.63;;
13933;SDS011;7039;52.168;9.866;2023-07-09T05:40:21;12.70;;;7.80;;
13933;SDS011;7039;52.168;9.866;2023-07-09T05:42:49;11.20;;;7.67;;
13933;SDS011;7039;52.168;9.866;2023-07-09T05:45:16;9.00;;;6.73;;
13933;SDS011;7039;52.168;9.866;2023-07-09T05:47:42;8.57;;;7.43;;
13933;SDS011;7039;52.168;9.866;2023-07-09T05:50:09;8.90;;;7.23;;
13933;SDS011;7039;52.168;9.866;2023-07-09T05:52:36;9.23;;;6.93;;
13933;SDS011;7039;52.168;9.866;2023-07-09T05:55:07;10.10;;;8.00;;
13933;SDS011;7039;52.168;9.866;2023-07-09T05:57:34;8.37;;;6.97;;
13933;SDS011;7039;52.168;9.866;2023-07-09T06:00:02;8.20;;;7.07;;
13933;SDS011;7039;52.168;9.866;2023-07-09T06:02:29;9.00;;;7.10;;
13933;SDS011;7039;52.168;9.866;2023-07-09T06:04:55;7.93;;;6.83;;
13933;SDS011;7039;52.168;9.866;2023-07-09T06:07:23;7.40;;;6.50;;
13933;SDS011;7039;52.168;9.866;2023-07-09T06:09:49;10.60;;;7.83;;
13933;SDS011;7039;52.168;9.866;2023-07-09T06:12:16;10.77;;;7.53;;
13933;SDS011;7039;52.168;9.866;2023-07-09T06:14:44;8.13;;;7.33;;
13933;SDS011;7039;52.168;9.866;2023-07-09T06:17:12;11.83;;;7.40;;
13933;SDS011;7039;52.168;9.866;2023-07-09T06:19:38;7.50;;;6.53;;
13933;SDS011;7039;52.168;9.866;2023-07-09T06:22:05;7.87;;;6.47;;
13933;SDS011;7039;52.168;9.866;2023-07-09T06:24:32;9.47;;;6.70;;
13933;SDS011;7039;52.168;9.866;2023-07-09T06:26:58;11.30;;;6.70;;
13933;SDS011;7039;52.168;9.866;2023-07-09T06:29:25;7.37;;;6.37;;
13933;SDS011;7039;52.168;9.866;2023-07-09T06:31:51;7.37;;;6.67;;
13933;SDS011;7039;52.168;9.866;2023-07-09T06:34:19;12.97;;;6.73;;
13933;SDS011;7039;52.168;9.866;2023-07-09T06:36:45;8.20;;;5.93;;
13933;SDS011;7039;52.168;9.866;2023-07-09T06:39:12;9.93;;;6.53;;
13933;SDS011;7039;52.168;9.866;2023-07-09T06:41:38;7.63;;;6.20;;
13933;SDS011;7039;52.168;9.866;2023-07-09T06:44:05;7.10;;;5.85;;
13933;SDS011;7039;52.168;9.866;2023-07-09T06:46:32;8.13;;;6.60;;
13933;SDS011;7039;52.168;9.866;2023-07-09T06:48:59;10.18;;;6.53;;
13933;SDS011;7039;52.168;9.866;2023-07-09T06:51:26;9.52;;;5.97;;
13933;SDS011;7039;52.168;9.866;2023-07-09T06:53:53;7.77;;;6.70;;
13933;SDS011;7039;52.168;9.866;2023-07-09T06:56:19;9.18;;;6.63;;
13933;SDS011;7039;52.168;9.866;2023-07-09T06:58:46;8.82;;;6.00;;
13933;SDS011;7039;52.168;9.866;2023-07-09T07:01:12;10.82;;;5.75;;
13933;SDS011;7039;52.168;9.866;2023-07-09T07:03:39;8.03;;;6.13;;
13933;SDS011;7039;52.168;9.866;2023-07-09T07:06:05;9.05;;;6.15;;
13933;SDS011;7039;52.168;9.866;2023-07-09T07:08:34;7.35;;;6.15;;
13933;SDS011;7039;52.168;9.866;2023-07-09T07:11:01;7.38;;;6.05;;
13933;SDS011;7039;52.168;9.866;2023-07-09T07:13:29;7.00;;;6.30;;
13933;SDS011;7039;52.168;9.866;2023-07-09T07:15:55;11.27;;;6.60;;
13933;SDS011;7039;52.168;9.866;2023-07-09T07:18:22;8.15;;;6.18;;
13933;SDS011;7039;52.168;9.866;2023-07-09T07:20:49;10.18;;;6.25;;
13933;SDS011;7039;52.168;9.866;2023-07-09T07:23:15;8.70;;;6.05;;
13933;SDS011;7039;52.168;9.866;2023-07-09T07:25:44;7.53;;;6.25;;
13933;SDS011;7039;52.168;9.866;2023-07-09T07:28:11;7.00;;;6.00;;
13933;SDS011;7039;52.168;9.866;2023-07-09T07:30:37;8.30;;;6.15;;
13933;SDS011;7039;52.168;9.866;2023-07-09T07:33:04;8.75;;;6.82;;
13933;SDS011;7039;52.168;9.866;2023-07-09T07:35:30;6.82;;;6.13;;
13933;SDS011;7039;52.168;9.866;2023-07-09T07:37:57;6.90;;;6.20;;
13933;SDS011;7039;52.168;9.866;2023-07-09T07:40:23;7.55;;;6.85;;
13933;SDS011;7039;52.168;9.866;2023-07-09T07:42:51;7.40;;;6.43;;
13933;SDS011;7039;52.168;9.866;2023-07-09T07:45:17;10.50;;;6.38;;
13933;SDS011;7039;52.168;9.866;2023-07-09T07:47:44;7.95;;;5.75;;
13933;SDS011;7039;52.168;9.866;2023-07-09T07:50:11;7.03;;;6.20;;
13933;SDS011;7039;52.168;9.866;2023-07-09T07:52:37;8.20;;;6.28;;
13933;SDS011;7039;52.168;9.866;2023-07-09T07:55:04;9.15;;;6.55;;
13933;SDS011;7039;52.168;9.866;2023-07-09T07:57:31;6.43;;;5.72;;
13933;SDS011;7039;52.168;9.866;2023-07-09T07:59:59;6.50;;;5.88;;
13933;SDS011;7039;52.168;9.866;2023-07-09T08:02:26;7.22;;;6.10;;
13933;SDS011;7039;52.168;9.866;2023-07-09T08:04:53;8.75;;;6.40;;
13933;SDS011;7039;52.168;9.866;2023-07-09T08:07:19;9.50;;;6.85;;
13933;SDS011;7039;52.168;9.866;2023-07-09T08:09:46;9.27;;;6.68;;
13933;SDS011;7039;52.168;9.866;2023-07-09T08:12:13;6.90;;;6.20;;
13933;SDS011;7039;52.168;9.866;2023-07-09T08:14:41;7.00;;;6.30;;
13933;SDS011;7039;52.168;9.866;2023-07-09T08:17:10;6.90;;;6.20;;
13933;SDS011;7039;52.168;9.866;2023-07-09T08:19:43;7.15;;;6.18;;
13933;SDS011;7039;52.168;9.866;2023-07-09T08:22:11;8.88;;;6.20;;
13933;SDS011;7039;52.168;9.866;2023-07-09T08:24:37;9.68;;;5.97;;
13933;SDS011;7039;52.168;9.866;2023-07-09T08:27:05;6.82;;;5.78;;
13933;SDS011;7039;52.168;9.866;2023-07-09T08:29:32;9.35;;;6.65;;
13933;SDS011;7039;52.168;9.866;2023-07-09T08:31:59;6.60;;;5.88;;
13933;SDS011;7039;52.168;9.866;2023-07-09T08:34:27;7.22;;;6.20;;
13933;SDS011;7039;52.168;9.866;2023-07-09T08:36:53;7.18;;;6.47;;
13933;SDS011;7039;52.168;9.866;2023-07-09T08:39:20;7.63;;;6.25;;
13933;SDS011;7039;52.168;9.866;2023-07-09T08:41:48;10.65;;;6.93;;
13933;SDS011;7039;52.168;9.866;2023-07-09T08:44:28;9.27;;;6.57;;
13933;SDS011;7039;52.168;9.866;2023-07-09T08:47:06;8.77;;;6.50;;
13933;SDS011;7039;52.168;9.866;2023-07-09T08:49:41;7.85;;;6.40;;
13933;SDS011;7039;52.168;9.866;2023-07-09T08:52:14;11.90;;;6.60;;
13933;SDS011;7039;52.168;9.866;2023-07-09T08:54:49;7.30;;;6.60;;
13933;SDS011;7039;52.168;9.866;2023-07-09T08:57:18;7.53;;;6.47;;
13933;SDS011;7039;52.168;9.866;2023-07-09T08:59:48;12.30;;;7.22;;
13933;SDS011;7039;52.168;9.866;2023-07-09T09:02:26;8.30;;;6.72;;
13933;SDS011;7039;52.168;9.866;2023-07-09T09:04:58;13.23;;;7.22;;
13933;SDS011;7039;52.168;9.866;2023-07-09T09:07:28;7.03;;;6.43;;
13933;SDS011;7039;52.168;9.866;2023-07-09T09:10:03;7.88;;;6.35;;
13933;SDS011;7039;52.168;9.866;2023-07-09T09:12:32;7.53;;;6.10;;
13933;SDS011;7039;52.168;9.866;2023-07-09T09:15:04;6.82;;;6.13;;
13933;SDS011;7039;52.168;9.866;2023-07-09T09:17:38;8.05;;;6.43;;
13933;SDS011;7039;52.168;9.866;2023-07-09T09:20:08;9.02;;;6.28;;
13933;SDS011;7039;52.168;9.866;2023-07-09T09:22:43;8.02;;;6.25;;
13933;SDS011;7039;52.168;9.866;2023-07-09T09:25:16;11.35;;;6.32;;
13933;SDS011;7039;52.168;9.866;2023-07-09T09:27:48;8.10;;;6.28;;
13933;SDS011;7039;52.168;9.866;2023-07-09T09:30:15;7.32;;;6.03;;
13933;SDS011;7039;52.168;9.866;2023-07-09T09:32:44;7.32;;;6.40;;
13933;SDS011;7039;52.168;9.866;2023-07-09T09:35:16;7.10;;;6.40;;
13933;SDS011;7039;52.168;9.866;2023-07-09T09:37:44;7.22;;;6.00;;
13933;SDS011;7039;52.168;9.866;2023-07-09T09:40:19;11.10;;;6.50;;
13933;SDS011;7039;52.168;9.866;2023-07-09T09:42:48;8.98;;;6.90;;
13933;SDS011;7039;52.168;9.866;2023-07-09T09:45:16;7.28;;;6.05;;
13933;SDS011;7039;52.168;9.866;2023-07-09T09:47:44;6.93;;;6.25;;
13933;SDS011;7039;52.168;9.866;2023-07-09T09:50:12;8.63;;;6.95;;
13933;SDS011;7039;52.168;9.866;2023-07-09T09:52:42;7.68;;;6.70;;
13933;SDS011;7039;52.168;9.866;2023-07-09T09:55:10;9.52;;;6.63;;
13933;SDS011;7039;52.168;9.866;2023-07-09T09:57:48;8.68;;;6.70;;
13933;SDS011;7039;52.168;9.866;2023-07-09T10:00:16;7.63;;;6.82;;
13933;SDS011;7039;52.168;9.866;2023-07-09T10:02:43;13.48;;;6.63;;
13933;SDS011;7039;52.168;9.866;2023-07-09T10:05:11;7.10;;;6.38;;
13933;SDS011;7039;52.168;9.866;2023-07-09T10:07:43;9.30;;;6.75;;
13933;SDS011;7039;52.168;9.866;2023-07-09T10:10:13;7.18;;;6.47;;
13933;SDS011;7039;52.168;9.866;2023-07-09T10:12:47;7.60;;;6.90;;
13933;SDS011;7039;52.168;9.866;2023-07-09T10:15:21;11.32;;;7.15;;
13933;SDS011;7039;52.168;9.866;2023-07-09T10:17:57;9.38;;;7.00;;
13933;SDS011;7039;52.168;9.866;2023-07-09T10:20:30;8.90;;;7.07;;
13933;SDS011;7039;52.168;9.866;2023-07-09T10:23:09;7.75;;;6.95;;
13933;SDS011;7039;52.168;9.866;2023-07-09T10:25:42;7.55;;;6.75;;
13933;SDS011;7039;52.168;9.866;2023-07-09T10:28:24;7.20;;;6.50;;
13933;SDS011;7039;52.168;9.866;2023-07-09T10:31:10;7.75;;;6.93;;
13933;SDS011;7039;52.168;9.866;2023-07-09T10:33:53;7.40;;;6.70;;
13933;SDS011;7039;52.168;9.866;2023-07-09T10:36:30;7.15;;;6.45;;
13933;SDS011;7039;52.168;9.866;2023-07-09T10:39:11;11.70;;;7.25;;
13933;SDS011;7039;52.168;9.866;2023-07-09T10:41:43;7.43;;;6.72;;
13933;SDS011;7039;52.168;9.866;2023-07-09T10:44:15;8.85;;;6.82;;
13933;SDS011;7039;52.168;9.866;2023-07-09T10:46:47;10.63;;;6.95;;
13933;SDS011;7039;52.168;9.866;2023-07-09T10:49:17;8.57;;;6.95;;
13933;SDS011;7039;52.168;9.866;2023-07-09T10:51:46;9.77;;;6.38;;
13933;SDS011;7039;52.168;9.866;2023-07-09T10:54:19;10.55;;;7.20;;
13933;SDS011;7039;52.168;9.866;2023-07-09T10:56:58;12.15;;;6.43;;
13933;SDS011;7039;52.168;9.866;2023-07-09T10:59:30;7.85;;;6.75;;
13933;SDS011;7039;52.168;9.866;2023-07-09T11:02:01;9.27;;;7.10;;
13933;SDS011;7039;52.168;9.866;2023-07-09T11:04:43;8.60;;;6.63;;
13933;SDS011;7039;52.168;9.866;2023-07-09T11:07:14;7.63;;;6.85;;
13933;SDS011;7039;52.168;9.866;2023-07-09T11:09:48;7.88;;;6.97;;
13933;SDS011;7039;52.168;9.866;2023-07-09T11:12:22;10.98;;;7.40;;
13933;SDS011;7039;52.168;9.866;2023-07-09T11:14:55;9.57;;;7.13;;
13933;SDS011;7039;52.168;9.866;2023-07-09T11:17:26;8.65;;;6.75;;
13933;SDS011;7039;52.168;9.866;2023-07-09T11:19:55;7.65;;;6.85;;
13933;SDS011;7039;52.168;9.866;2023-07-09T11:22:25;7.03;;;6.25;;
13933;SDS011;7039;52.168;9.866;2023-07-09T11:25:05;7.53;;;6.72;;
13933;SDS011;7039;52.168;9.866;2023-07-09T11:27:33;7.13;;;6.43;;
13933;SDS011;7039;52.168;9.866;2023-07-09T11:30:19;7.57;;;6.70;;
13933;SDS011;7039;52.168;9.866;2023-07-09T11:32:51;9.88;;;6.45;;
13933;SDS011;7039;52.168;9.866;2023-07-09T11:35:20;6.82;;;6.22;;
13933;SDS011;7039;52.168;9.866;2023-07-09T11:37:48;11.50;;;6.47;;
13933;SDS011;7039;52.168;9.866;2023-07-09T11:40:16;7.55;;;6.85;;
13933;SDS011;7039;52.168;9.866;2023-07-09T11:42:48;8.20;;;6.68;;
13933;SDS011;7039;52.168;9.866;2023-07-09T11:45:18;6.57;;;5.97;;
13933;SDS011;7039;52.168;9.866;2023-07-09T11:47:51;7.22;;;6.60;;
13933;SDS011;7039;52.168;9.866;2023-07-09T11:50:26;8.93;;;6.70;;
13933;SDS011;7039;52.168;9.866;2023-07-09T11:52:55;7.47;;;6.63;;
13933;SDS011;7039;52.168;9.866;2023-07-09T11:55:29;10.07;;;6.20;;
13933;SDS011;7039;52.168;9.866;2023-07-09T11:58:00;10.93;;;6.50;;
13933;SDS011;7039;52.168;9.866;2023-07-09T12:00:28;6.93;;;6.10;;
13933;SDS011;7039;52.168;9.866;2023-07-09T12:03:00;7.28;;;6.57;;
13933;SDS011;7039;52.168;9.866;2023-07-09T12:05:27;7.00;;;6.30;;
13933;SDS011;7039;52.168;9.866;2023-07-09T12:07:55;10.63;;;6.70;;
13933;SDS011;7039;52.168;9.866;2023-07-09T12:10:24;8.43;;;6.63;;
13933;SDS011;7039;52.168;9.866;2023-07-09T12:12:55;6.88;;;6.20;;
13933;SDS011;7039;52.168;9.866;2023-07-09T12:15:22;13.13;;;6.35;;
13933;SDS011;7039;52.168;9.866;2023-07-09T12:17:57;7.85;;;6.70;;
13933;SDS011;7039;52.168;9.866;2023-07-09T12:20:25;8.60;;;6.38;;
13933;SDS011;7039;52.168;9.866;2023-07-09T12:22:55;7.47;;;6.78;;
13933;SDS011;7039;52.168;9.866;2023-07-09T12:25:22;9.68;;;6.03;;
13933;SDS011;7039;52.168;9.866;2023-07-09T12:27:52;7.28;;;6.57;;
13933;SDS011;7039;52.168;9.866;2023-07-09T12:30:20;6.55;;;5.90;;
13933;SDS011;7039;52.168;9.866;2023-07-09T12:32:47;8.55;;;6.63;;
13933;SDS011;7039;52.168;9.866;2023-07-09T12:35:17;6.32;;;5.72;;
13933;SDS011;7039;52.168;9.866;2023-07-09T12:37:45;7.25;;;6.55;;
13933;SDS011;7039;52.168;9.866;2023-07-09T12:40:13;7.95;;;6.30;;
13933;SDS011;7039;52.168;9.866;2023-07-09T12:42:42;9.63;;;6.20;;
13933;SDS011;7039;52.168;9.866;2023-07-09T12:45:15;7.63;;;6.68;;
13933;SDS011;7039;52.168;9.866;2023-07-09T12:47:43;6.68;;;5.53;;
13933;SDS011;7039;52.168;9.866;2023-07-09T12:50:22;9.00;;;6.03;;
13933;SDS011;7039;52.168;9.866;2023-07-09T12:52:55;6.22;;;5.63;;
13933;SDS011;7039;52.168;9.866;2023-07-09T12:55:23;7.47;;;6.22;;
13933;SDS011;7039;52.168;9.866;2023-07-09T12:57:51;10.02;;;6.70;;
13933;SDS011;7039;52.168;9.866;2023-07-09T13:00:23;8.95;;;6.75;;
13933;SDS011;7039;52.168;9.866;2023-07-09T13:02:55;7.75;;;6.78;;
13933;SDS011;7039;52.168;9.866;2023-07-09T13:05:24;7.80;;;6.25;;
13933;SDS011;7039;52.168;9.866;2023-07-09T13:07:52;11.05;;;6.50;;
13933;SDS011;7039;52.168;9.866;2023-07-09T13:10:21;10.93;;;6.10;;
13933;SDS011;7039;52.168;9.866;2023-07-09T13:12:51;6.97;;;6.32;;
13933;SDS011;7039;52.168;9.866;2023-07-09T13:15:23;9.80;;;6.63;;
13933;SDS011;7039;52.168;9.866;2023-07-09T13:17:56;7.53;;;6.10;;
13933;SDS011;7039;52.168;9.866;2023-07-09T13:20:23;7.95;;;5.97;;
13933;SDS011;7039;52.168;9.866;2023-07-09T13:22:50;7.93;;;5.88;;
13933;SDS011;7039;52.168;9.866;2023-07-09T13:25:17;10.75;;;6.80;;
13933;SDS011;7039;52.168;9.866;2023-07-09T13:27:43;7.43;;;6.65;;
13933;SDS011;7039;52.168;9.866;2023-07-09T13:30:11;7.05;;;6.45;;
13933;SDS011;7039;52.168;9.866;2023-07-09T13:32:39;6.78;;;6.15;;
13933;SDS011;7039;52.168;9.866;2023-07-09T13:35:08;8.07;;;6.20;;
13933;SDS011;7039;52.168;9.866;2023-07-09T13:37:40;7.60;;;5.40;;
13933;SDS011;7039;52.168;9.866;2023-07-09T13:40:07;8.40;;;6.13;;
13933;SDS011;7039;52.168;9.866;2023-07-09T13:42:36;7.30;;;6.22;;
13933;SDS011;7039;52.168;9.866;2023-07-09T13:45:04;7.10;;;6.38;;
13933;SDS011;7039;52.168;9.866;2023-07-09T13:47:31;7.25;;;6.50;;
13933;SDS011;7039;52.168;9.866;2023-07-09T13:49:59;6.82;;;6.13;;
13933;SDS011;7039;52.168;9.866;2023-07-09T13:52:26;7.65;;;6.10;;
13933;SDS011;7039;52.168;9.866;2023-07-09T13:54:53;6.63;;;5.93;;
13933;SDS011;7039;52.168;9.866;2023-07-09T13:57:20;7.07;;;6.38;;
13933;SDS011;7039;52.168;9.866;2023-07-09T13:59:48;8.38;;;6.50;;
13933;SDS011;7039;52.168;9.866;2023-07-09T14:02:21;8.65;;;6.15;;
13933;SDS011;7039;52.168;9.866;2023-07-09T14:04:51;7.85;;;7.03;;
13933;SDS011;7039;52.168;9.866;2023-07-09T14:07:22;7.82;;;6.75;;
13933;SDS011;7039;52.168;9.866;2023-07-09T14:09:52;9.40;;;6.43;;
13933;SDS011;7039;52.168;9.866;2023-07-09T14:12:19;6.10;;;5.60;;
13933;SDS011;7039;52.168;9.866;2023-07-09T14:14:46;7.00;;;6.40;;
13933;SDS011;7039;52.168;9.866;2023-07-09T14:17:13;7.93;;;6.93;;
13933;SDS011;7039;52.168;9.866;2023-07-09T14:19:39;7.07;;;6.38;;
13933;SDS011;7039;52.168;9.866;2023-07-09T14:22:13;6.30;;;5.70;;
13933;SDS011;7039;52.168;9.866;2023-07-09T14:24:48;7.50;;;6.55;;
13933;SDS011;7039;52.168;9.866;2023-07-09T14:27:14;8.70;;;6.47;;
13933;SDS011;7039;52.168;9.866;2023-07-09T14:29:43;7.15;;;6.43;;
13933;SDS011;7039;52.168;9.866;2023-07-09T14:32:13;8.00;;;6.13;;
13933;SDS011;7039;52.168;9.866;2023-07-09T14:34:56;6.13;;;5.63;;
13933;SDS011;7039;52.168;9.866;2023-07-09T14:37:23;6.60;;;5.93;;
13933;SDS011;7039;52.168;9.866;2023-07-09T14:39:50;7.45;;;6.30;;
13933;SDS011;7039;52.168;9.866;2023-07-09T14:42:17;7.78;;;6.03;;
13933;SDS011;7039;52.168;9.866;2023-07-09T14:44:44;11.65;;;6.25;;
13933;SDS011;7039;52.168;9.866;2023-07-09T14:47:11;7.82;;;6.35;;
13933;SDS011;7039;52.168;9.866;2023-07-09T14:49:42;6.20;;;5.60;;
13933;SDS011;7039;52.168;9.866;2023-07-09T14:52:10;6.90;;;6.15;;
13933;SDS011;7039;52.168;9.866;2023-07-09T14:54:38;8.20;;;6.00;;
13933;SDS011;7039;52.168;9.866;2023-07-09T14:57:13;9.88;;;5.72;;
13933;SDS011;7039;52.168;9.866;2023-07-09T14:59:44;7.78;;;5.80;;
13933;SDS011;7039;52.168;9.866;2023-07-09T15:02:15;6.90;;;5.50;;
13933;SDS011;7039;52.168;9.866;2023-07-09T15:04:47;6.32;;;5.45;;
13933;SDS011;7039;52.168;9.866;2023-07-09T15:07:14;9.40;;;6.05;;
13933;SDS011;7039;52.168;9.866;2023-07-09T15:09:41;7.95;;;5.65;;
13933;SDS011;7039;52.168;9.866;2023-07-09T15:12:12;8.43;;;5.70;;
13933;SDS011;7039;52.168;9.866;2023-07-09T15:14:42;6.97;;;6.07;;
13933;SDS011;7039;52.168;9.866;2023-07-09T15:17:09;9.07;;;6.13;;
13933;SDS011;7039;52.168;9.866;2023-07-09T15:19:36;13.43;;;6.18;;
13933;SDS011;7039;52.168;9.866;2023-07-09T15:22:03;9.15;;;6.25;;
13933;SDS011;7039;52.168;9.866;2023-07-09T15:24:31;8.63;;;5.90;;
13933;SDS011;7039;52.168;9.866;2023-07-09T15:26:59;7.32;;;5.93;;
13933;SDS011;7039;52.168;9.866;2023-07-09T15:29:28;8.32;;;5.90;;
13933;SDS011;7039;52.168;9.866;2023-07-09T15:31:55;9.75;;;5.63;;
13933;SDS011;7039;52.168;9.866;2023-07-09T15:34:21;8.32;;;5.72;;
13933;SDS011;7039;52.168;9.866;2023-07-09T15:36:48;11.30;;;6.13;;
13933;SDS011;7039;52.168;9.866;2023-07-09T15:39:16;8.73;;;5.60;;
13933;SDS011;7039;52.168;9.866;2023-07-09T15:41:43;11.63;;;5.78;;
13933;SDS011;7039;52.168;9.866;2023-07-09T15:44:10;8.05;;;5.90;;
13933;SDS011;7039;52.168;9.866;2023-07-09T15:46:39;9.63;;;5.75;;
13933;SDS011;7039;52.168;9.866;2023-07-09T15:49:06;10.43;;;6.28;;
13933;SDS011;7039;52.168;9.866;2023-07-09T15:51:33;6.95;;;5.95;;
13933;SDS011;7039;52.168;9.866;2023-07-09T15:54:00;8.57;;;6.05;;
13933;SDS011;7039;52.168;9.866;2023-07-09T15:56:28;6.60;;;5.80;;
13933;SDS011;7039;52.168;9.866;2023-07-09T15:58:58;8.45;;;6.03;;
13933;SDS011;7039;52.168;9.866;2023-07-09T16:01:26;8.18;;;6.53;;
13933;SDS011;7039;52.168;9.866;2023-07-09T16:03:58;7.68;;;5.68;;
13933;SDS011;7039;52.168;9.866;2023-07-09T16:06:26;9.25;;;5.88;;
13933;SDS011;7039;52.168;9.866;2023-07-09T16:08:52;12.48;;;6.00;;
13933;SDS011;7039;52.168;9.866;2023-07-09T16:11:19;11.82;;;5.88;;
13933;SDS011;7039;52.168;9.866;2023-07-09T16:13:47;11.68;;;5.75;;
13933;SDS011;7039;52.168;9.866;2023-07-09T16:16:15;9.48;;;5.72;;
13933;SDS011;7039;52.168;9.866;2023-07-09T16:18:42;8.90;;;6.07;;
13933;SDS011;7039;52.168;9.866;2023-07-09T16:21:15;8.07;;;6.50;;
13933;SDS011;7039;52.168;9.866;2023-07-09T16:23:48;9.57;;;6.20;;
13933;SDS011;7039;52.168;9.866;2023-07-09T16:26:15;9.43;;;6.43;;
13933;SDS011;7039;52.168;9.866;2023-07-09T16:28:42;10.73;;;6.15;;
13933;SDS011;7039;52.168;9.866;2023-07-09T16:31:08;9.75;;;7.22;;
13933;SDS011;7039;52.168;9.866;2023-07-09T16:33:35;11.82;;;6.57;;
13933;SDS011;7039;52.168;9.866;2023-07-09T16:36:01;9.77;;;6.90;;
13933;SDS011;7039;52.168;9.866;2023-07-09T16:38:30;14.07;;;6.95;;